Time;durP1;ratioP1;P1;durP2;ratioP2;P2;SDS_P1;SDS_P2;PMS_P1;PMS_P2;Temp;Humidity;BMP_temperature;BMP_pressure;BME280_temperature;BME280_humidity;BME280_pressure;Samples;Min_cycle;Max_cycle;Signal;HPM_P1;HPM_P2
2022/05/23 00:04:43;;;;;;;6.80;4.10;;;10.30;99.90;;;;;;12753678;23;20229;-83
2022/05/23 00:09:46;;;;;;;5.43;3.87;;;10.80;99.90;;;;;;12733352;23;20523;-83
2022/05/23 00:14:50;;;;;;;3.87;3.47;;;10.40;99.90;;;;;;12731625;23;20219;-83
2022/05/23 00:19:52;;;;;;;8.83;3.90;;;10.50;99.90;;;;;;12751714;23;20176;-83
2022/05/23 00:24:55;;;;;;;4.87;3.90;;;10.90;99.90;;;;;;12732735;23;20250;-83
2022/05/23 00:30:01;;;;;;;4.13;3.60;;;10.60;99.90;;;;;;12755423;23;20711;-83
2022/05/23 00:35:20;;;;;;;5.20;4.40;;;11.00;99.90;;;;;;12733814;23;20208;-83
2022/05/23 00:40:38;;;;;;;6.37;4.37;;;10.70;99.90;;;;;;12730042;23;20790;-83
2022/05/23 00:45:51;;;;;;;4.67;3.93;;;11.00;99.90;;;;;;12754249;23;20258;-83
2022/05/23 00:50:57;;;;;;;7.53;4.47;;;10.40;99.90;;;;;;12730965;23;20175;-83
2022/05/23 00:55:59;;;;;;;4.70;3.70;;;9.80;99.90;;;;;;12754918;23;20711;-83
2022/05/23 01:01:07;;;;;;;4.97;4.00;;;9.70;99.90;;;;;;12729638;23;20192;-83
2022/05/23 01:06:09;;;;;;;5.00;3.90;;;10.20;99.90;;;;;;12727939;23;20249;-77
2022/05/23 01:11:14;;;;;;;5.83;3.70;;;10.20;99.90;;;;;;12704073;23;20186;-78
2022/05/23 01:16:16;;;;;;;4.13;3.73;;;10.10;99.90;;;;;;12704159;23;20182;-77
2022/05/23 01:22:09;;;;;;;5.27;3.93;;;9.80;99.90;;;;;;12681244;23;20242;-77
2022/05/23 01:27:14;;;;;;;3.90;3.60;;;10.40;99.90;;;;;;12701960;23;20184;-78
2022/05/23 01:32:17;;;;;;;5.10;3.50;;;10.50;99.90;;;;;;12703443;23;20235;-77
2022/05/23 01:37:23;;;;;;;4.20;3.77;;;9.20;99.90;;;;;;12702938;23;20217;-78
2022/05/23 01:42:58;;;;;;;7.43;3.90;;;9.20;99.90;;;;;;12502702;23;20321;-77
2022/05/23 01:48:02;;;;;;;3.90;3.20;;;9.60;99.90;;;;;;12476844;23;20180;-77
2022/05/23 01:53:05;;;;;;;4.23;3.53;;;9.60;99.90;;;;;;12482911;23;20246;-78
2022/05/23 02:01:13;;;;;;;3.67;3.37;;;9.80;99.90;;;;;;12459576;23;20234;-78
2022/05/23 02:03:47;;;;;;;6.93;3.83;;;9.80;99.90;;;;;;12459166;23;20270;-77
2022/05/23 02:08:49;;;;;;;5.30;4.00;;;10.10;99.90;;;;;;12473039;23;20242;-78
2022/05/23 02:13:54;;;;;;;5.07;3.77;;;9.80;99.90;;;;;;12451381;23;20183;-77
2022/05/23 02:19:07;;;;;;;3.43;3.13;;;10.00;99.90;;;;;;12679311;23;20534;-77
2022/05/23 02:24:10;;;;;;;4.20;3.80;;;11.00;99.90;;;;;;12700862;23;20209;-77
2022/05/23 02:29:14;;;;;;;5.70;3.57;;;10.40;99.90;;;;;;12728756;23;20172;-78
2022/05/23 02:34:18;;;;;;;4.60;4.07;;;10.50;99.90;;;;;;12728841;23;20168;-77
2022/05/23 02:39:24;;;;;;;4.33;3.93;;;10.40;99.90;;;;;;12703287;23;20180;-78
2022/05/23 02:44:28;;;;;;;4.70;4.30;;;10.80;99.90;;;;;;12726270;23;20610;-77
2022/05/23 02:49:30;;;;;;;5.13;4.03;;;10.50;99.90;;;;;;12701594;23;20180;-78
2022/05/23 02:54:34;;;;;;;4.50;4.10;;;10.80;99.90;;;;;;12701963;23;20180;-78
2022/05/23 02:59:38;;;;;;;7.10;5.67;;;10.80;99.90;;;;;;12702045;23;20187;-78
2022/05/23 03:04:45;;;;;;;6.37;4.77;;;11.10;99.90;;;;;;12685920;23;20209;-77
2022/05/23 03:09:50;;;;;;;6.83;4.70;;;10.50;99.90;;;;;;12666727;23;20195;-78
2022/05/23 03:14:53;;;;;;;6.17;4.97;;;10.40;99.90;;;;;;12641580;23;20236;-78
2022/05/23 03:19:56;;;;;;;7.63;5.13;;;9.40;99.90;;;;;;12664688;23;20186;-77
2022/05/23 03:30:21;;;;;;;7.23;4.90;;;9.70;99.90;;;;;;12663094;23;20185;-77
2022/05/23 03:35:31;;;;;;;6.00;5.40;;;10.20;99.90;;;;;;12642538;23;20565;-77
2022/05/23 03:40:36;;;;;;;5.87;4.93;;;10.40;99.90;;;;;;12664520;23;20236;-78
2022/05/23 03:45:39;;;;;;;6.77;5.13;;;10.20;99.90;;;;;;12665243;23;20252;-77
2022/05/23 03:50:45;;;;;;;7.93;5.00;;;11.30;99.90;;;;;;12638245;23;20236;-78
2022/05/23 03:55:50;;;;;;;8.57;5.30;;;11.10;99.90;;;;;;12640974;23;20652;-77
2022/05/23 04:01:12;;;;;;;6.43;4.80;;;11.20;99.90;;;;;;12664184;23;20191;-77
2022/05/23 04:06:15;;;;;;;7.50;5.20;;;10.60;99.90;;;;;;12665973;23;20212;-77
2022/05/23 04:11:40;;;;;;;7.47;6.13;;;10.80;99.90;;;;;;12645267;23;20599;-77
2022/05/23 04:16:48;;;;;;;6.83;6.13;;;11.00;99.90;;;;;;12647589;23;20541;-77
2022/05/23 04:21:51;;;;;;;7.07;6.37;;;11.00;99.90;;;;;;12674123;23;20183;-77
2022/05/23 04:27:02;;;;;;;5.37;3.87;;;10.90;99.90;;;;;;12650364;23;20180;-78
2022/05/23 04:37:35;;;;;;;9.93;6.67;;;12.60;99.90;;;;;;12672332;23;20184;-77
2022/05/23 04:42:38;;;;;;;5.80;3.87;;;13.10;99.90;;;;;;12644771;23;20197;-77
2022/05/23 04:53:05;;;;;;;10.27;6.03;;;13.90;99.90;;;;;;12666605;23;20645;-77
2022/05/23 04:58:18;;;;;;;7.83;5.17;;;13.70;99.90;;;;;;12664849;23;20216;-77
2022/05/23 05:03:20;;;;;;;8.93;5.07;;;12.70;99.90;;;;;;12641741;23;20264;-77
2022/05/23 05:08:25;;;;;;;9.07;5.90;;;12.90;99.90;;;;;;12641996;23;20205;-77
2022/05/23 05:13:29;;;;;;;6.53;4.93;;;12.60;99.90;;;;;;12642421;23;20185;-77
2022/05/23 05:18:34;;;;;;;6.77;4.80;;;12.70;99.90;;;;;;12668055;23;20180;-77
2022/05/23 05:23:57;;;;;;;4.03;3.50;;;12.70;99.90;;;;;;12656353;23;20204;-77
2022/05/23 05:29:06;;;;;;;3.97;2.97;;;13.10;99.90;;;;;;12667456;23;20185;-77
2022/05/23 05:34:26;;;;;;;5.97;4.50;;;13.70;99.90;;;;;;12667655;23;20185;-76
2022/05/23 05:39:31;;;;;;;4.03;3.43;;;14.10;99.90;;;;;;12641833;23;20231;-77
2022/05/23 05:44:36;;;;;;;2.80;2.10;;;13.70;99.90;;;;;;12640938;23;20197;-77
2022/05/23 05:49:46;;;;;;;6.90;4.30;;;14.60;99.90;;;;;;12643471;23;20173;-77
2022/05/23 05:54:51;;;;;;;2.53;2.10;;;15.00;99.90;;;;;;12640667;23;20185;-78
2022/05/23 05:59:53;;;;;;;8.10;5.67;;;15.40;99.90;;;;;;12636281;23;20216;-78
2022/05/23 06:04:57;;;;;;;5.70;4.57;;;15.00;99.90;;;;;;12641069;23;20236;-77
2022/05/23 06:15:29;;;;;;;5.32;4.00;;;16.30;99.90;;;;;;12667472;23;20260;-78
2022/05/23 06:20:32;;;;;;;6.33;3.50;;;17.30;96.90;;;;;;12632644;23;20660;-90
2022/05/23 06:25:35;;;;;;;6.40;3.35;;;17.50;95.60;;;;;;12732902;23;20258;-90
2022/05/23 06:30:42;;;;;;;5.63;3.15;;;16.80;96.00;;;;;;12737306;23;20177;-89
2022/05/23 06:35:55;;;;;;;8.55;4.53;;;17.30;95.10;;;;;;12736983;23;20184;-89
2022/05/23 06:41:00;;;;;;;6.40;3.97;;;16.90;95.20;;;;;;12734835;23;20227;-89
2022/05/23 06:46:09;;;;;;;2.92;2.65;;;16.80;96.20;;;;;;12734568;23;20200;-89
2022/05/23 06:51:34;;;;;;;6.28;3.25;;;17.20;95.70;;;;;;12733677;23;20176;-90
2022/05/23 06:56:37;;;;;;;4.60;4.13;;;17.60;94.60;;;;;;12710395;23;20212;-88
2022/05/23 07:01:39;;;;;;;5.18;3.97;;;17.30;95.70;;;;;;12759766;23;20528;-89
2022/05/23 07:12:24;;;;;;;8.13;5.05;;;18.20;92.80;;;;;;12734138;23;20180;-90
2022/05/23 07:17:30;;;;;;;4.57;3.75;;;18.20;91.30;;;;;;12731913;23;20240;-90
2022/05/23 07:22:56;;;;;;;3.08;2.58;;;18.30;92.50;;;;;;12726826;23;20208;-90
2022/05/23 07:28:02;;;;;;;10.48;3.90;;;18.10;92.80;;;;;;12724896;23;20180;-80
2022/05/23 07:33:06;;;;;;;5.32;2.88;;;18.90;91.70;;;;;;12726618;23;20172;-80
2022/05/23 07:38:28;;;;;;;4.00;3.10;;;19.90;91.30;;;;;;12738219;23;20180;-81
2022/05/23 07:43:35;;;;;;;5.15;3.80;;;20.20;92.00;;;;;;12722090;23;20258;-80
2022/05/23 07:48:49;;;;;;;6.15;2.53;;;20.50;92.10;;;;;;12748534;23;20184;-81
2022/05/23 08:04:48;;;;;;;3.55;2.75;;;21.20;89.00;;;;;;12728154;23;20745;-81
2022/05/23 08:09:50;;;;;;;3.35;2.70;;;21.40;89.70;;;;;;12702631;23;20180;-81
2022/05/23 08:14:53;;;;;;;6.90;3.17;;;21.70;88.90;;;;;;12726850;23;20189;-81
2022/05/23 08:20:05;;;;;;;4.78;4.30;;;21.70;89.40;;;;;;12727716;23;20235;-81
2022/05/23 08:25:11;;;;;;;2.47;2.28;;;21.80;84.40;;;;;;12750535;23;20204;-81
2022/05/23 08:30:22;;;;;;;6.05;2.50;;;21.80;90.40;;;;;;12750145;23;20176;-81
2022/05/23 08:35:30;;;;;;;5.07;2.60;;;22.00;87.60;;;;;;12702703;23;20628;-80
2022/05/23 08:40:46;;;;;;;3.28;2.60;;;22.00;87.70;;;;;;12700508;23;20188;-81
2022/05/23 08:45:55;;;;;;;3.78;2.35;;;22.10;85.60;;;;;;12724090;23;20189;-81
2022/05/23 08:51:18;;;;;;;4.60;2.58;;;21.90;89.20;;;;;;12723872;23;20184;-81
2022/05/23 08:56:55;;;;;;;3.40;2.20;;;21.90;89.50;;;;;;12727060;23;20643;-82
2022/05/23 09:02:11;;;;;;;3.15;2.28;;;22.10;90.00;;;;;;12728148;23;20263;-81
2022/05/23 09:07:33;;;;;;;2.70;2.08;;;22.10;90.00;;;;;;12729704;23;20254;-81
2022/05/23 09:12:36;;;;;;;2.65;2.45;;;22.30;90.00;;;;;;12747394;23;20173;-82
2022/05/23 09:17:46;;;;;;;7.13;3.50;;;22.20;90.10;;;;;;12714440;23;20168;-81
2022/05/23 09:22:53;;;;;;;5.03;3.75;;;22.00;78.20;;;;;;12732039;23;20231;-81
2022/05/23 09:28:20;;;;;;;4.38;3.38;;;21.70;74.70;;;;;;12740778;23;20200;-81
2022/05/23 09:33:24;;;;;;;6.05;3.35;;;21.70;79.10;;;;;;12747166;23;20651;-81
2022/05/23 09:38:29;;;;;;;5.47;2.13;;;21.40;76.40;;;;;;12724895;23;20168;-81
2022/05/23 09:49:10;;;;;;;3.67;1.95;;;21.80;81.70;;;;;;12727601;23;20241;-81
2022/05/23 09:54:23;;;;;;;2.33;2.10;;;22.00;78.20;;;;;;12744622;23;20194;-81
2022/05/23 09:59:37;;;;;;;2.00;1.80;;;21.80;81.90;;;;;;12731913;23;20172;-81
2022/05/23 10:04:46;;;;;;;1.95;1.77;;;21.80;82.10;;;;;;12697340;23;20232;-81
2022/05/23 10:10:00;;;;;;;5.03;2.20;;;21.70;83.80;;;;;;12724189;23;20168;-81
2022/05/23 10:15:28;;;;;;;2.97;1.80;;;21.90;83.60;;;;;;12731056;23;20299;-80
2022/05/23 10:20:42;;;;;;;1.73;1.63;;;21.90;83.00;;;;;;12726790;23;20266;-80
2022/05/23 10:25:56;;;;;;;3.47;2.97;;;21.90;83.60;;;;;;12746604;23;20555;-80
2022/05/23 10:31:05;;;;;;;3.15;2.38;;;20.70;86.80;;;;;;12730890;23;20208;-80
2022/05/23 10:36:17;;;;;;;2.53;1.95;;;21.30;80.20;;;;;;12752585;23;20180;-80
2022/05/23 10:47:47;;;;;;;1.60;1.45;;;21.40;80.40;;;;;;12748394;23;20571;-80
2022/05/23 10:52:52;;;;;;;2.20;1.98;;;21.40;73.40;;;;;;12728127;23;20207;-80
2022/05/23 10:58:34;;;;;;;2.75;1.60;;;21.50;77.40;;;;;;12729884;23;20172;-80
2022/05/23 11:03:50;;;;;;;6.85;3.25;;;21.90;77.70;;;;;;12729289;23;20202;-79
2022/05/23 11:09:02;;;;;;;2.65;1.85;;;21.70;77.10;;;;;;12746622;23;20210;-80
2022/05/23 11:14:20;;;;;;;2.17;1.80;;;21.60;80.70;;;;;;12726427;23;20531;-79
2022/05/23 11:19:32;;;;;;;1.90;1.80;;;21.60;80.00;;;;;;12745972;23;20235;-80
2022/05/23 11:24:52;;;;;;;6.05;3.97;;;21.60;81.70;;;;;;12751351;23;20199;-80
2022/05/23 11:35:23;;;;;;;5.47;3.05;;;21.60;77.60;;;;;;12733089;23;20570;-80
2022/05/23 11:40:25;;;;;;;2.80;1.90;;;21.50;75.70;;;;;;12751034;23;20235;-80
2022/05/23 11:51:06;;;;;;;5.65;2.88;;;21.60;78.70;;;;;;12730852;23;20239;-80
2022/05/23 11:56:31;;;;;;;3.30;2.38;;;21.50;79.80;;;;;;12732599;23;20179;-80
2022/05/23 12:01:35;;;;;;;2.80;2.42;;;21.50;80.80;;;;;;12754466;23;20278;-80
2022/05/23 12:06:41;;;;;;;1.85;1.52;;;21.60;80.60;;;;;;12747131;23;20192;-80
2022/05/23 12:11:49;;;;;;;1.88;1.55;;;21.80;83.10;;;;;;12732331;23;20228;-80
2022/05/23 12:16:55;;;;;;;6.53;3.40;;;21.70;80.10;;;;;;12729986;23;20579;-80
2022/05/23 12:22:18;;;;;;;2.35;2.15;;;21.70;75.20;;;;;;12731574;23;20208;-80
2022/05/23 12:27:29;;;;;;;3.10;2.80;;;21.60;82.20;;;;;;12747735;23;20247;-80
2022/05/23 12:32:32;;;;;;;2.13;1.88;;;21.50;73.80;;;;;;12729344;23;20639;-80
2022/05/23 12:37:38;;;;;;;1.42;1.33;;;21.60;81.40;;;;;;12728991;23;20909;-80
2022/05/23 12:42:51;;;;;;;1.40;1.30;;;21.80;83.90;;;;;;12745823;23;20631;-79
2022/05/23 12:48:23;;;;;;;1.40;1.30;;;21.90;83.70;;;;;;12748328;23;20578;-80
2022/05/23 12:53:59;;;;;;;2.30;1.67;;;21.80;78.70;;;;;;12483803;23;20183;-79
2022/05/23 12:59:33;;;;;;;2.15;1.75;;;21.70;78.90;;;;;;12443914;23;20686;-79
2022/05/23 13:04:41;;;;;;;2.65;2.40;;;21.80;83.30;;;;;;12432173;23;20259;-81
2022/05/23 13:10:01;;;;;;;2.15;1.95;;;21.70;73.00;;;;;;12466213;23;20179;-80
2022/05/23 13:15:04;;;;;;;3.33;2.97;;;21.60;76.60;;;;;;12489940;23;20186;-80
2022/05/23 13:25:41;;;;;;;3.20;1.85;;;20.80;79.30;;;;;;12458821;23;20275;-80
2022/05/23 13:30:47;;;;;;;3.03;1.85;;;21.30;79.00;;;;;;12705141;23;20644;-80
2022/05/23 13:36:00;;;;;;;3.67;1.83;;;21.50;76.30;;;;;;12702706;23;20494;-80
2022/05/23 13:41:05;;;;;;;2.92;1.73;;;21.60;79.40;;;;;;12747233;23;20169;-80
2022/05/23 13:46:32;;;;;;;1.35;1.23;;;21.60;79.40;;;;;;12729182;23;20239;-80
2022/05/23 13:51:40;;;;;;;2.42;1.92;;;21.90;79.50;;;;;;12729140;23;20223;-80
2022/05/23 13:56:48;;;;;;;2.28;1.60;;;21.90;79.00;;;;;;12728083;23;20199;-80
2022/05/23 14:01:53;;;;;;;4.38;2.55;;;21.90;79.30;;;;;;12724952;23;20843;-80
2022/05/23 14:07:08;;;;;;;1.77;1.60;;;21.80;75.90;;;;;;12701051;23;20235;-80
2022/05/23 14:12:14;;;;;;;3.50;1.65;;;21.90;79.70;;;;;;12741874;23;20173;-80
2022/05/23 14:17:27;;;;;;;1.98;1.80;;;21.90;79.60;;;;;;12698981;23;20184;-80
2022/05/23 14:22:31;;;;;;;2.63;1.80;;;22.00;79.60;;;;;;12725622;23;20960;-79
2022/05/23 14:27:46;;;;;;;1.65;1.50;;;21.90;79.40;;;;;;12743294;23;20240;-80
2022/05/23 14:33:03;;;;;;;3.17;2.00;;;21.90;78.50;;;;;;12748433;23;20176;-80
2022/05/23 14:38:38;;;;;;;2.55;1.33;;;21.90;78.10;;;;;;12742372;23;20172;-79
2022/05/23 14:43:41;;;;;;;1.88;1.50;;;21.90;80.00;;;;;;12724241;23;20187;-79
2022/05/23 14:48:55;;;;;;;2.08;1.40;;;22.00;79.90;;;;;;12728475;23;20735;-79
2022/05/23 15:05:03;;;;;;;1.45;1.35;;;22.10;78.50;;;;;;12731039;23;20644;-80
2022/05/23 15:10:07;;;;;;;2.92;1.65;;;22.10;77.30;;;;;;12747119;23;20165;-79
2022/05/23 15:15:09;;;;;;;1.58;1.40;;;22.10;78.20;;;;;;12729938;23;20176;-79
2022/05/23 15:20:12;;;;;;;1.60;1.50;;;22.20;79.90;;;;;;12752903;23;20753;-80
2022/05/23 15:25:15;;;;;;;3.30;1.88;;;22.20;79.50;;;;;;12730553;23;20526;-79
2022/05/23 15:30:21;;;;;;;1.42;1.30;;;22.30;77.10;;;;;;12729370;23;20510;-79
2022/05/23 15:35:24;;;;;;;2.10;1.65;;;22.10;74.40;;;;;;12748472;23;20172;-79
2022/05/23 15:40:29;;;;;;;1.67;1.58;;;22.20;79.00;;;;;;12730633;23;20173;-79
2022/05/23 15:45:33;;;;;;;1.52;1.35;;;22.20;78.40;;;;;;12730237;23;20208;-79
2022/05/23 15:50:38;;;;;;;2.95;1.30;;;22.20;78.60;;;;;;12727809;23;20165;-79
2022/05/23 15:55:44;;;;;;;4.22;2.65;;;22.00;76.60;;;;;;12727062;23;20540;-79
2022/05/23 16:00:47;;;;;;;1.70;1.38;;;22.20;86.90;;;;;;12728051;23;20184;-79
2022/05/23 16:05:51;;;;;;;4.15;1.65;;;22.20;76.80;;;;;;12728293;23;20243;-79
2022/05/23 16:11:25;;;;;;;1.75;1.20;;;22.30;75.60;;;;;;12724276;23;20176;-79
2022/05/23 16:16:29;;;;;;;5.60;2.05;;;22.30;75.80;;;;;;12458718;23;20238;-79
2022/05/23 16:21:32;;;;;;;3.70;1.20;;;;;;;;;;12459688;23;20203;-81
2022/05/23 16:26:35;;;;;;;2.85;1.52;;;22.20;69.80;;;;;;12483494;23;20241;-81
2022/05/23 16:31:38;;;;;;;5.80;1.52;;;22.20;66.70;;;;;;12460078;23;20239;-81
2022/05/23 16:36:41;;;;;;;1.40;1.30;;;22.00;65.80;;;;;;12461638;23;20202;-81
2022/05/23 16:41:45;;;;;;;5.30;1.27;;;22.00;66.00;;;;;;12459560;23;20220;-80
2022/05/23 16:46:48;;;;;;;2.90;1.48;;;22.20;66.00;;;;;;12461117;23;20195;-80
2022/05/23 16:51:51;;;;;;;1.92;1.20;;;22.30;65.90;;;;;;12629270;23;20376;-87
2022/05/23 16:56:53;;;;;;;3.17;1.20;;;22.60;65.90;;;;;;12730558;23;20172;-87
2022/05/23 17:01:58;;;;;;;2.03;1.20;;;22.40;65.10;;;;;;12729543;23;20188;-87
2022/05/23 17:07:01;;;;;;;11.18;1.85;;;22.30;65.40;;;;;;12729661;23;20188;-84
2022/05/23 17:12:05;;;;;;;3.75;1.13;;;22.20;65.40;;;;;;12729109;23;20180;-83
2022/05/23 17:17:07;;;;;;;6.80;1.52;;;22.60;65.10;;;;;;12728283;23;20239;-85
2022/05/23 17:22:10;;;;;;;1.98;1.33;;;22.80;65.50;;;;;;12731638;23;20201;-85
2022/05/23 17:27:18;;;;;;;1.50;1.02;;;23.00;65.30;;;;;;12748023;23;20192;-84
2022/05/23 17:32:21;;;;;;;3.55;1.02;;;22.90;66.10;;;;;;12729767;23;20180;-84
2022/05/23 17:37:28;;;;;;;6.05;1.20;;;23.00;66.40;;;;;;12748568;23;20198;-84
2022/05/23 17:42:34;;;;;;;1.67;1.13;;;23.00;66.90;;;;;;12752178;23;20188;-85
2022/05/23 17:47:37;;;;;;;2.50;1.33;;;22.90;67.30;;;;;;12729639;23;20255;-85
2022/05/23 17:52:40;;;;;;;2.10;1.00;;;23.00;67.40;;;;;;12731398;23;20235;-85
2022/05/23 17:57:42;;;;;;;1.92;1.05;;;22.70;68.20;;;;;;12731172;23;20615;-85
2022/05/23 18:02:45;;;;;;;3.08;1.08;;;22.60;69.30;;;;;;12749740;23;20172;-85
2022/05/23 18:07:47;;;;;;;6.63;1.63;;;22.50;69.50;;;;;;12730636;23;20318;-85
2022/05/23 18:12:50;;;;;;;4.43;1.27;;;22.00;69.00;;;;;;12730832;23;20173;-85
2022/05/23 18:23:15;;;;;;;1.83;1.10;;;21.20;71.60;;;;;;12729968;23;20262;-85
2022/05/23 18:28:18;;;;;;;1.30;0.80;;;21.10;73.60;;;;;;12727969;23;20192;-85
2022/05/23 18:33:21;;;;;;;4.80;1.30;;;20.70;74.40;;;;;;12753620;23;20181;-85
2022/05/23 18:38:24;;;;;;;5.85;2.13;;;20.20;75.00;;;;;;12730156;23;20172;-85
2022/05/23 18:43:26;;;;;;;1.42;1.00;;;20.30;75.50;;;;;;12730062;23;20172;-85
2022/05/23 18:53:50;;;;;;;1.15;0.85;;;20.20;77.10;;;;;;12729035;23;20168;-85
2022/05/23 18:58:52;;;;;;;1.30;1.02;;;20.30;78.70;;;;;;12730958;23;20524;-85
2022/05/23 19:03:55;;;;;;;3.65;0.90;;;20.30;78.70;;;;;;12731185;23;20207;-85
2022/05/23 19:09:15;;;;;;;1.65;0.98;;;20.40;79.20;;;;;;12748038;23;20192;-85
2022/05/23 19:14:18;;;;;;;1.80;1.45;;;20.20;79.80;;;;;;12743079;23;20167;-85
2022/05/23 19:19:32;;;;;;;4.35;1.00;;;20.30;80.00;;;;;;12746513;23;20245;-85
2022/05/23 19:24:38;;;;;;;3.30;1.30;;;20.60;78.70;;;;;;12730600;23;20566;-85
2022/05/23 19:29:42;;;;;;;3.55;2.63;;;20.40;79.00;;;;;;12738147;23;20812;-86
2022/05/23 19:34:44;;;;;;;1.27;1.10;;;19.90;72.30;;;;;;12734189;23;20211;-86
2022/05/23 19:39:47;;;;;;;2.65;1.35;;;19.80;81.80;;;;;;12728661;23;20172;-85
2022/05/23 19:44:51;;;;;;;1.60;0.90;;;20.40;80.80;;;;;;12728943;23;20203;-86
2022/05/23 19:49:53;;;;;;;1.35;1.23;;;20.30;80.40;;;;;;12729326;23;20188;-86
2022/05/23 19:54:56;;;;;;;4.47;1.08;;;20.50;81.00;;;;;;12730225;23;20164;-86
2022/05/23 20:00:01;;;;;;;0.70;0.68;;;20.50;80.70;;;;;;12730555;23;20267;-86
2022/05/23 20:10:31;;;;;;;0.95;0.70;;;20.70;80.50;;;;;;12751142;23;20252;-85
2022/05/23 20:15:34;;;;;;;6.00;2.50;;;20.80;80.40;;;;;;12733722;23;20557;-85
2022/05/23 20:20:47;;;;;;;1.77;1.58;;;20.30;78.80;;;;;;12733718;23;20254;-85
2022/05/23 20:25:50;;;;;;;1.40;1.00;;;19.90;82.10;;;;;;12755917;23;20251;-84
2022/05/23 20:30:53;;;;;;;4.20;1.73;;;20.20;82.30;;;;;;12733111;23;20225;-84
2022/05/23 20:35:55;;;;;;;1.65;1.15;;;19.80;80.40;;;;;;12732518;23;20172;-84
2022/05/23 20:40:58;;;;;;;6.15;2.33;;;19.60;82.70;;;;;;12731041;23;20172;-85
2022/05/23 20:46:21;;;;;;;2.17;1.65;;;19.30;82.90;;;;;;12732865;23;20231;-85
2022/05/23 20:51:23;;;;;;;3.75;2.20;;;19.30;85.50;;;;;;12748895;23;20219;-85
2022/05/23 20:56:26;;;;;;;3.90;2.85;;;19.50;82.80;;;;;;12727494;23;20184;-85
2022/05/23 21:01:28;;;;;;;1.77;1.25;;;19.50;80.80;;;;;;12731097;23;20200;-86
2022/05/23 21:06:31;;;;;;;2.53;1.50;;;19.90;85.20;;;;;;12730298;23;20204;-86
2022/05/23 21:11:33;;;;;;;3.35;1.35;;;20.10;83.70;;;;;;12730861;23;20219;-86
2022/05/23 21:16:35;;;;;;;3.05;1.80;;;19.70;81.90;;;;;;12728945;23;20215;-86
2022/05/23 21:21:39;;;;;;;1.20;1.10;;;19.70;83.70;;;;;;12733027;23;20197;-86
2022/05/23 21:26:41;;;;;;;3.78;3.25;;;19.60;84.90;;;;;;12755127;23;21009;-86
2022/05/23 21:31:45;;;;;;;3.85;3.45;;;19.00;80.30;;;;;;12730115;23;20208;-86
2022/05/23 21:36:47;;;;;;;1.88;1.75;;;18.80;85.50;;;;;;12731839;23;20172;-86
2022/05/23 21:47:13;;;;;;;2.47;1.88;;;17.60;89.40;;;;;;12732241;23;20188;-86
2022/05/23 21:52:16;;;;;;;12.32;5.80;;;17.40;92.00;;;;;;12731149;23;20231;-86
2022/05/23 21:57:19;;;;;;;5.20;3.40;;;17.30;91.40;;;;;;12753063;23;20255;-86
2022/05/23 22:02:23;;;;;;;5.05;3.58;;;17.50;91.80;;;;;;12736021;23;20243;-86
2022/05/23 22:07:25;;;;;;;1.50;1.40;;;17.50;93.10;;;;;;12754335;23;20192;-86
2022/05/23 22:12:28;;;;;;;4.25;1.80;;;18.40;91.80;;;;;;12730405;23;20180;-85
2022/05/23 22:17:30;;;;;;;4.63;4.22;;;18.40;91.80;;;;;;12728257;23;20526;-86
2022/05/23 22:22:32;;;;;;;3.25;2.88;;;18.60;90.00;;;;;;12732358;23;20290;-86
2022/05/23 22:27:35;;;;;;;2.22;1.73;;;18.10;90.80;;;;;;12754855;23;20247;-85
2022/05/23 22:32:38;;;;;;;4.28;2.40;;;18.60;91.60;;;;;;12756191;23;20551;-86
2022/05/23 22:37:40;;;;;;;2.22;1.75;;;18.40;91.30;;;;;;12737439;23;20172;-86
2022/05/23 22:42:42;;;;;;;2.88;1.90;;;18.70;91.30;;;;;;12713133;23;20180;-87
2022/05/23 22:47:45;;;;;;;3.65;3.30;;;18.00;91.80;;;;;;12735898;23;20548;-86
2022/05/23 22:52:47;;;;;;;2.08;1.85;;;17.50;91.10;;;;;;12757345;23;20184;-86
2022/05/23 22:57:51;;;;;;;3.67;2.70;;;17.60;93.40;;;;;;12779375;23;20165;-85
2022/05/23 23:08:17;;;;;;;2.78;2.42;;;18.10;91.40;;;;;;12796216;23;20215;-86
2022/05/23 23:13:19;;;;;;;1.15;1.05;;;17.80;92.60;;;;;;12782060;23;20160;-85
2022/05/23 23:18:24;;;;;;;4.35;2.90;;;17.70;94.10;;;;;;12787901;23;20211;-86
2022/05/23 23:23:26;;;;;;;9.63;3.97;;;18.10;90.50;;;;;;12785409;23;20184;-86
2022/05/23 23:28:29;;;;;;;2.10;1.42;;;18.40;90.00;;;;;;12778545;23;20645;-85
2022/05/23 23:38:53;;;;;;;5.97;4.05;;;18.50;92.80;;;;;;12776124;23;20156;-85
2022/05/23 23:43:56;;;;;;;3.17;2.60;;;18.60;89.30;;;;;;12777475;23;20512;-85
2022/05/23 23:48:58;;;;;;;1.98;1.50;;;18.40;92.20;;;;;;12776895;23;20521;-85
2022/05/23 23:54:00;;;;;;;1.23;1.02;;;18.30;92.10;;;;;;12775712;23;20210;-85
2022/05/23 23:59:03;;;;;;;1.13;1.02;;;18.60;92.30;;;;;;12774332;23;20173;-85
